createdAt,value
2016-11-05T00:00:23.020Z,981.47
2016-11-05T00:01:31.740Z,981.46
2016-11-05T00:02:40.432Z,981.48
2016-11-05T00:03:49.116Z,981.42
2016-11-05T00:04:57.802Z,981.42
2016-11-05T00:06:06.495Z,981.42
2016-11-05T00:07:15.183Z,981.48
2016-11-05T00:08:23.868Z,981.44
2016-11-05T00:09:32.557Z,981.45
2016-11-05T00:10:41.244Z,981.46
2016-11-05T00:11:49.930Z,981.44
2016-11-05T00:12:58.622Z,981.43
2016-11-05T00:14:07.315Z,981.42
2016-11-05T00:15:16.010Z,981.37
2016-11-05T00:16:24.694Z,981.43
2016-11-05T00:17:33.420Z,981.45
2016-11-05T00:18:42.105Z,981.45
2016-11-05T00:19:50.791Z,981.44
2016-11-05T00:20:59.481Z,981.43
2016-11-05T00:22:08.177Z,981.47
2016-11-05T00:23:16.866Z,981.47
2016-11-05T00:24:25.593Z,981.47
2016-11-05T00:25:34.312Z,981.44
2016-11-05T00:26:42.997Z,981.43
2016-11-05T00:27:51.688Z,981.42
2016-11-05T00:29:00.375Z,981.41
2016-11-05T00:30:09.377Z,981.4
2016-11-05T00:31:18.100Z,981.39
2016-11-05T00:32:26.793Z,981.47
2016-11-05T00:33:35.479Z,981.44
2016-11-05T00:34:44.162Z,981.47
2016-11-05T00:35:52.855Z,981.41
2016-11-05T00:37:01.539Z,981.43
2016-11-05T00:38:10.274Z,981.39
2016-11-05T00:39:19.004Z,981.39
2016-11-05T00:40:28.003Z,981.39
2016-11-05T00:41:36.690Z,981.38
2016-11-05T00:42:45.379Z,981.38
2016-11-05T00:43:54.065Z,981.39
2016-11-05T00:45:02.761Z,981.41
2016-11-05T00:46:11.449Z,981.36
2016-11-05T00:47:20.140Z,981.37
2016-11-05T00:48:28.828Z,981.36
2016-11-05T00:49:37.516Z,981.33
2016-11-05T00:50:46.205Z,981.34
2016-11-05T00:51:54.894Z,981.34
2016-11-05T00:53:03.590Z,981.33
2016-11-05T00:54:12.305Z,981.28
2016-11-05T00:55:21.019Z,981.24
2016-11-05T00:56:29.713Z,981.28
2016-11-05T00:57:38.396Z,981.31
2016-11-05T00:58:47.084Z,981.28
2016-11-05T00:59:56.086Z,981.28
2016-11-05T01:01:04.777Z,981.25
2016-11-05T01:02:13.468Z,981.28
2016-11-05T01:03:22.162Z,981.27
2016-11-05T01:04:30.883Z,981.26
2016-11-05T01:05:39.609Z,981.29
2016-11-05T01:06:48.336Z,981.29
2016-11-05T01:07:57.025Z,981.27
2016-11-05T01:09:05.714Z,981.27
2016-11-05T01:10:14.403Z,981.26
2016-11-05T01:11:23.136Z,981.24
2016-11-05T01:12:31.828Z,981.25
2016-11-05T01:13:40.521Z,981.21
2016-11-05T01:14:49.209Z,981.21
2016-11-05T01:15:57.925Z,981.21
2016-11-05T01:17:06.614Z,981.14
2016-11-05T01:18:15.315Z,981.16
2016-11-05T01:19:24.004Z,981.13
2016-11-05T01:20:32.691Z,981.09
2016-11-05T01:21:41.378Z,981.01
2016-11-05T01:22:50.065Z,981.08
2016-11-05T01:23:58.762Z,981.07
2016-11-05T01:25:07.454Z,981.07
2016-11-05T01:26:16.144Z,981.11
2016-11-05T01:27:24.869Z,981.05
2016-11-05T01:28:33.566Z,981.02
2016-11-05T01:29:42.253Z,981
2016-11-05T01:30:50.942Z,981.04
2016-11-05T01:31:59.634Z,981
2016-11-05T01:33:08.343Z,981.01
2016-11-05T01:34:17.030Z,980.95
2016-11-05T01:35:25.718Z,980.96
2016-11-05T01:36:34.406Z,981.01
2016-11-05T01:37:43.095Z,980.99
2016-11-05T01:38:51.780Z,981.03
2016-11-05T01:40:00.781Z,981.03
2016-11-05T01:41:09.478Z,981.01
2016-11-05T01:42:18.169Z,981.01
2016-11-05T01:43:26.859Z,980.98
2016-11-05T01:44:35.550Z,980.92
2016-11-05T01:45:44.238Z,980.97
2016-11-05T01:46:52.930Z,980.98
2016-11-05T01:48:01.614Z,980.98
2016-11-05T01:49:10.303Z,980.96
2016-11-05T01:50:18.987Z,980.99
2016-11-05T01:51:27.704Z,980.98
2016-11-05T01:52:36.492Z,980.99
2016-11-05T01:53:45.502Z,980.99
2016-11-05T01:54:54.192Z,980.97
2016-11-05T01:56:02.915Z,981.01
2016-11-05T01:57:11.604Z,981.03
2016-11-05T01:58:20.294Z,981
2016-11-05T01:59:28.994Z,981
2016-11-05T02:00:37.675Z,981
2016-11-05T02:01:46.362Z,981.04
2016-11-05T02:02:55.052Z,980.96
2016-11-05T02:04:03.736Z,980.99
2016-11-05T02:05:12.429Z,980.99
2016-11-05T02:06:21.117Z,981.04
2016-11-05T02:07:29.804Z,980.98
2016-11-05T02:08:38.494Z,981.06
2016-11-05T02:09:47.183Z,981.04
2016-11-05T02:10:55.871Z,980.99
2016-11-05T02:12:04.558Z,981.05
2016-11-05T02:13:13.278Z,981
2016-11-05T02:14:21.999Z,980.96
2016-11-05T02:15:30.693Z,980.98
2016-11-05T02:16:39.386Z,980.94
2016-11-05T02:17:48.069Z,981
2016-11-05T02:18:56.757Z,980.96
2016-11-05T02:20:05.479Z,980.98
2016-11-05T02:21:14.163Z,980.95
2016-11-05T02:22:22.860Z,981
2016-11-05T02:23:31.548Z,981
2016-11-05T02:24:40.238Z,980.9
2016-11-05T02:25:48.929Z,980.88
2016-11-05T02:26:57.627Z,980.86
2016-11-05T02:28:06.321Z,980.87
2016-11-05T02:29:15.016Z,980.8
2016-11-05T02:30:23.702Z,980.87
2016-11-05T02:31:32.386Z,980.84
2016-11-05T02:32:41.068Z,980.83
2016-11-05T02:33:49.757Z,980.81
2016-11-05T02:34:58.445Z,980.76
2016-11-05T02:36:07.129Z,980.76
2016-11-05T02:37:15.812Z,980.75
2016-11-05T02:38:24.498Z,980.74
2016-11-05T02:39:33.182Z,980.75
2016-11-05T02:40:41.865Z,980.7
2016-11-05T02:41:50.561Z,980.71
2016-11-05T02:42:59.260Z,980.75
2016-11-05T02:44:07.955Z,980.68
2016-11-05T02:45:16.957Z,980.71
2016-11-05T02:46:25.648Z,980.75
2016-11-05T02:47:34.337Z,980.75
2016-11-05T02:48:43.061Z,980.75
2016-11-05T02:49:51.746Z,980.75
2016-11-05T02:51:00.442Z,980.72
2016-11-05T02:52:09.134Z,980.74
2016-11-05T02:53:17.825Z,980.77
2016-11-05T02:54:26.553Z,980.74
2016-11-05T02:55:35.242Z,980.73
2016-11-05T02:56:43.927Z,980.72
2016-11-05T02:57:52.629Z,980.67
2016-11-05T02:59:01.311Z,980.77
2016-11-05T03:00:10.000Z,980.77
2016-11-05T03:01:18.691Z,980.81
2016-11-05T03:02:27.412Z,980.82
2016-11-05T03:03:36.104Z,980.82
2016-11-05T03:04:44.797Z,980.81
2016-11-05T03:05:53.492Z,980.84
2016-11-05T03:07:02.176Z,980.78
2016-11-05T03:08:10.867Z,980.77
2016-11-05T03:09:19.557Z,980.8
2016-11-05T03:10:28.246Z,980.78
2016-11-05T03:11:36.931Z,980.79
2016-11-05T03:12:45.622Z,980.79
2016-11-05T03:13:54.310Z,980.81
2016-11-05T03:15:03.034Z,980.74
2016-11-05T03:16:11.720Z,980.77
2016-11-05T03:17:20.419Z,980.81
2016-11-05T03:18:29.129Z,980.75
2016-11-05T03:19:37.814Z,980.75
2016-11-05T03:20:46.533Z,980.72
2016-11-05T03:21:55.220Z,980.64
2016-11-05T03:23:03.939Z,980.72
2016-11-05T03:24:12.632Z,980.72
2016-11-05T03:25:21.320Z,980.7
2016-11-05T03:26:30.020Z,980.75
2016-11-05T03:27:38.712Z,980.75
2016-11-05T03:28:47.397Z,980.74
2016-11-05T03:29:56.083Z,980.68
2016-11-05T03:31:04.782Z,980.8
2016-11-05T03:32:13.470Z,980.78
2016-11-05T03:33:22.159Z,980.83
2016-11-05T03:34:30.851Z,980.83
2016-11-05T03:35:39.536Z,980.82
2016-11-05T03:36:48.224Z,980.81
2016-11-05T03:37:56.919Z,980.8
2016-11-05T03:39:05.645Z,980.85
2016-11-05T03:40:14.372Z,980.85
2016-11-05T03:41:23.068Z,980.87
2016-11-05T03:42:31.758Z,980.85
2016-11-05T03:43:40.476Z,980.81
2016-11-05T03:44:49.169Z,980.83
2016-11-05T03:45:57.852Z,980.83
2016-11-05T03:47:06.542Z,980.8
2016-11-05T03:48:15.230Z,980.82
2016-11-05T03:49:23.923Z,980.76
2016-11-05T03:50:32.647Z,980.74
2016-11-05T03:51:41.337Z,980.73
2016-11-05T03:52:50.024Z,980.76
2016-11-05T03:53:58.710Z,980.73
2016-11-05T03:55:07.397Z,980.68
2016-11-05T03:56:16.082Z,980.76
2016-11-05T03:57:24.766Z,980.77
2016-11-05T03:58:33.452Z,980.73
2016-11-05T03:59:42.136Z,980.67
2016-11-05T04:00:50.827Z,980.69
2016-11-05T04:01:59.511Z,980.7
2016-11-05T04:03:08.204Z,980.71
2016-11-05T04:04:16.893Z,980.69
2016-11-05T04:05:25.581Z,980.67
2016-11-05T04:06:34.266Z,980.68
2016-11-05T04:07:42.957Z,980.65
2016-11-05T04:08:51.647Z,980.6
2016-11-05T04:10:00.333Z,980.61
2016-11-05T04:11:09.025Z,980.63
2016-11-05T04:12:17.712Z,980.63
2016-11-05T04:13:26.400Z,980.62
2016-11-05T04:14:35.089Z,980.59
2016-11-05T04:15:43.835Z,980.58
2016-11-05T04:16:52.525Z,980.59
2016-11-05T04:18:01.212Z,980.63
2016-11-05T04:19:10.212Z,980.62
2016-11-05T04:20:18.907Z,980.67
2016-11-05T04:21:27.592Z,980.6
2016-11-05T04:22:36.284Z,980.57
2016-11-05T04:23:44.973Z,980.59
2016-11-05T04:24:53.660Z,980.64
2016-11-05T04:26:02.352Z,980.6
2016-11-05T04:27:11.041Z,980.63
2016-11-05T04:28:19.732Z,980.59
2016-11-05T04:29:28.418Z,980.6
2016-11-05T04:30:37.101Z,980.6
2016-11-05T04:31:45.791Z,980.57
2016-11-05T04:32:54.477Z,980.59
2016-11-05T04:34:03.480Z,980.57
2016-11-05T04:35:12.174Z,980.53
2016-11-05T04:36:20.866Z,980.53
2016-11-05T04:37:29.556Z,980.56
2016-11-05T04:38:38.248Z,980.55
2016-11-05T04:39:46.983Z,980.56
2016-11-05T04:40:55.670Z,980.51
2016-11-05T04:42:04.363Z,980.57
2016-11-05T04:43:13.047Z,980.54
2016-11-05T04:44:21.736Z,980.56
2016-11-05T04:45:30.426Z,980.56
2016-11-05T04:46:39.151Z,980.59
2016-11-05T04:47:47.844Z,980.54
2016-11-05T04:48:56.534Z,980.54
2016-11-05T04:50:05.220Z,980.55
2016-11-05T04:51:13.912Z,980.52
2016-11-05T04:52:22.600Z,980.53
2016-11-05T04:53:31.285Z,980.52
2016-11-05T04:54:40.011Z,980.53
2016-11-05T04:55:48.714Z,980.53
2016-11-05T04:56:57.400Z,980.47
2016-11-05T04:58:06.085Z,980.5
2016-11-05T04:59:14.779Z,980.49
2016-11-05T05:00:23.472Z,980.47
2016-11-05T05:01:32.193Z,980.51
2016-11-05T05:02:40.913Z,980.43
2016-11-05T05:03:49.638Z,980.41
2016-11-05T05:04:58.327Z,980.47
2016-11-05T05:06:07.029Z,980.44
2016-11-05T05:07:15.717Z,980.49
2016-11-05T05:08:24.430Z,980.47
2016-11-05T05:09:33.119Z,980.47
2016-11-05T05:10:41.827Z,980.44
2016-11-05T05:11:50.830Z,980.46
2016-11-05T05:12:59.518Z,980.4
2016-11-05T05:14:08.205Z,980.43
2016-11-05T05:15:16.893Z,980.46
2016-11-05T05:16:25.583Z,980.43
2016-11-05T05:17:34.270Z,980.46
2016-11-05T05:18:42.958Z,980.49
2016-11-05T05:19:51.642Z,980.47
2016-11-05T05:21:00.329Z,980.49
2016-11-05T05:22:09.336Z,980.45
2016-11-05T05:23:18.021Z,980.38
2016-11-05T05:24:26.742Z,980.44
2016-11-05T05:25:35.429Z,980.49
2016-11-05T05:26:44.125Z,980.49
2016-11-05T05:27:52.814Z,980.47
2016-11-05T05:29:01.499Z,980.49
2016-11-05T05:30:10.194Z,980.48
2016-11-05T05:31:18.884Z,980.48
2016-11-05T05:32:27.580Z,980.54
2016-11-05T05:33:36.272Z,980.58
2016-11-05T05:34:44.958Z,980.57
2016-11-05T05:35:53.649Z,980.51
2016-11-05T05:37:02.337Z,980.53
2016-11-05T05:38:11.024Z,980.52
2016-11-05T05:39:19.713Z,980.55
2016-11-05T05:40:28.403Z,980.56
2016-11-05T05:41:37.143Z,980.6
2016-11-05T05:42:45.835Z,980.54
2016-11-05T05:43:54.564Z,980.64
2016-11-05T05:45:03.257Z,980.61
2016-11-05T05:46:11.944Z,980.63
2016-11-05T05:47:20.640Z,980.66
2016-11-05T05:48:29.334Z,980.61
2016-11-05T05:49:38.017Z,980.67
2016-11-05T05:50:46.737Z,980.64
2016-11-05T05:51:55.430Z,980.55
2016-11-05T05:53:04.116Z,980.61
2016-11-05T05:54:12.840Z,980.63
2016-11-05T05:55:21.526Z,980.66
2016-11-05T05:56:30.215Z,980.64
2016-11-05T05:57:38.902Z,980.58
2016-11-05T05:58:47.588Z,980.66
2016-11-05T05:59:56.273Z,980.68
2016-11-05T06:01:05.283Z,980.72
2016-11-05T06:02:13.975Z,980.71
2016-11-05T06:03:22.664Z,980.67
2016-11-05T06:04:31.350Z,980.66
2016-11-05T06:05:40.045Z,980.64
2016-11-05T06:06:49.051Z,980.69
2016-11-05T06:07:57.739Z,980.68
2016-11-05T06:09:06.465Z,980.69
2016-11-05T06:10:15.151Z,980.73
2016-11-05T06:11:23.841Z,980.73
2016-11-05T06:12:32.527Z,980.75
2016-11-05T06:13:41.258Z,980.7
2016-11-05T06:14:49.942Z,980.68
2016-11-05T06:15:58.626Z,980.73
2016-11-05T06:17:07.314Z,980.72
2016-11-05T06:18:16.004Z,980.76
2016-11-05T06:19:24.692Z,980.72
2016-11-05T06:20:33.387Z,980.76
2016-11-05T06:21:42.073Z,980.71
2016-11-05T06:22:50.764Z,980.79
2016-11-05T06:23:59.452Z,980.75
2016-11-05T06:25:08.139Z,980.74
2016-11-05T06:26:16.823Z,980.79
2016-11-05T06:27:25.511Z,980.75
2016-11-05T06:28:34.203Z,980.76
2016-11-05T06:29:42.892Z,980.78
2016-11-05T06:30:51.579Z,980.76
2016-11-05T06:32:00.269Z,980.78
2016-11-05T06:33:08.958Z,980.81
2016-11-05T06:34:17.650Z,980.79
2016-11-05T06:35:26.648Z,980.8
2016-11-05T06:36:35.336Z,980.85
2016-11-05T06:37:44.023Z,980.83
2016-11-05T06:38:52.711Z,980.84
2016-11-05T06:40:01.402Z,980.88
2016-11-05T06:41:10.089Z,980.84
2016-11-05T06:42:18.776Z,980.86
2016-11-05T06:43:27.465Z,980.83
2016-11-05T06:44:36.191Z,980.89
2016-11-05T06:45:44.888Z,980.91
2016-11-05T06:46:53.580Z,980.92
2016-11-05T06:48:02.313Z,980.95
2016-11-05T06:49:11.003Z,980.87
2016-11-05T06:50:19.696Z,980.93
2016-11-05T06:51:28.386Z,980.93
2016-11-05T06:52:37.072Z,980.94
2016-11-05T06:53:45.761Z,980.95
2016-11-05T06:54:54.451Z,980.92
2016-11-05T06:56:03.138Z,980.93
2016-11-05T06:57:11.829Z,980.98
2016-11-05T06:58:20.519Z,980.95
2016-11-05T06:59:29.243Z,981
2016-11-05T07:00:37.928Z,980.99
2016-11-05T07:01:46.624Z,980.98
2016-11-05T07:02:55.313Z,980.96
2016-11-05T07:04:04.314Z,980.99
2016-11-05T07:05:13.002Z,981.04
2016-11-05T07:06:21.700Z,981.03
2016-11-05T07:07:30.400Z,981.01
2016-11-05T07:08:39.086Z,981.05
2016-11-05T07:09:47.775Z,981.04
2016-11-05T07:10:56.464Z,981.03
2016-11-05T07:12:05.155Z,981.07
2016-11-05T07:13:13.841Z,981.02
2016-11-05T07:14:22.527Z,981.06
2016-11-05T07:15:31.251Z,981.06
2016-11-05T07:16:39.937Z,981
2016-11-05T07:17:48.625Z,981.1
2016-11-05T07:18:57.318Z,981.02
2016-11-05T07:20:06.004Z,981.1
2016-11-05T07:21:14.689Z,980.98
2016-11-05T07:22:23.389Z,981.01
2016-11-05T07:23:32.081Z,981.09
2016-11-05T07:24:40.766Z,981.12
2016-11-05T07:25:49.457Z,981.1
2016-11-05T07:26:58.181Z,981.13
2016-11-05T07:28:06.871Z,981.1
2016-11-05T07:29:15.559Z,981.12
2016-11-05T07:30:24.248Z,981.17
2016-11-05T07:31:32.940Z,981.19
2016-11-05T07:32:41.656Z,981.12
2016-11-05T07:33:50.345Z,981.13
2016-11-05T07:34:59.029Z,981.12
2016-11-05T07:36:07.713Z,981.19
2016-11-05T07:37:16.432Z,981.17
2016-11-05T07:38:25.118Z,981.17
2016-11-05T07:39:33.851Z,981.18
2016-11-05T07:40:42.546Z,981.2
2016-11-05T07:41:51.246Z,981.19
2016-11-05T07:42:59.943Z,981.17
2016-11-05T07:44:08.631Z,981.2
2016-11-05T07:45:17.322Z,981.19
2016-11-05T07:46:26.353Z,981.18
2016-11-05T07:47:35.040Z,981.2
2016-11-05T07:48:43.724Z,981.22
2016-11-05T07:49:52.449Z,981.25
2016-11-05T07:51:01.136Z,981.21
2016-11-05T07:52:09.828Z,981.18
2016-11-05T07:53:18.520Z,981.2
2016-11-05T07:54:27.212Z,981.2
2016-11-05T07:55:35.900Z,981.27
2016-11-05T07:56:44.585Z,981.25
2016-11-05T07:57:53.309Z,981.27
2016-11-05T07:59:02.001Z,981.27
2016-11-05T08:00:10.690Z,981.28
2016-11-05T08:01:19.378Z,981.28
2016-11-05T08:02:28.061Z,981.37
2016-11-05T08:03:36.745Z,981.31
2016-11-05T08:04:45.748Z,981.34
2016-11-05T08:05:54.440Z,981.37
2016-11-05T08:07:03.134Z,981.38
2016-11-05T08:08:11.826Z,981.41
2016-11-05T08:09:20.513Z,981.44
2016-11-05T08:10:29.205Z,981.41
2016-11-05T08:11:37.893Z,981.39
2016-11-05T08:12:46.580Z,981.47
2016-11-05T08:13:55.266Z,981.43
2016-11-05T08:15:03.951Z,981.48
2016-11-05T08:16:12.641Z,981.47
2016-11-05T08:17:21.326Z,981.4
2016-11-05T08:18:30.012Z,981.53
2016-11-05T08:19:38.701Z,981.48
2016-11-05T08:20:47.387Z,981.48
2016-11-05T08:21:56.077Z,981.57
2016-11-05T08:23:04.764Z,981.55
2016-11-05T08:24:13.449Z,981.59
2016-11-05T08:25:22.138Z,981.47
2016-11-05T08:26:30.847Z,981.53
2016-11-05T08:27:39.546Z,981.6
2016-11-05T08:28:48.272Z,981.59
2016-11-05T08:29:56.963Z,981.57
2016-11-05T08:31:05.687Z,981.52
2016-11-05T08:32:14.374Z,981.59
2016-11-05T08:33:23.072Z,981.61
2016-11-05T08:34:31.766Z,981.6
2016-11-05T08:35:40.458Z,981.65
2016-11-05T08:36:49.181Z,981.6
2016-11-05T08:37:57.871Z,981.68
2016-11-05T08:39:06.556Z,981.65
2016-11-05T08:40:15.257Z,981.63
2016-11-05T08:41:23.943Z,981.61
2016-11-05T08:42:32.628Z,981.59
2016-11-05T08:43:41.329Z,981.66
2016-11-05T08:44:50.016Z,981.63
2016-11-05T08:45:58.713Z,981.65
2016-11-05T08:47:07.414Z,981.64
2016-11-05T08:48:16.109Z,981.61
2016-11-05T08:49:24.799Z,981.65
2016-11-05T08:50:33.492Z,981.65
2016-11-05T08:51:42.213Z,981.73
2016-11-05T08:52:50.902Z,981.66
2016-11-05T08:53:59.587Z,981.66
2016-11-05T08:55:08.328Z,981.64
2016-11-05T08:56:17.014Z,981.67
2016-11-05T08:57:25.706Z,981.69
2016-11-05T08:58:34.430Z,981.71
2016-11-05T08:59:43.120Z,981.62
2016-11-05T09:00:51.812Z,981.71
2016-11-05T09:02:00.502Z,981.65
2016-11-05T09:03:09.189Z,981.75
2016-11-05T09:04:17.882Z,981.78
2016-11-05T09:05:26.573Z,981.77
2016-11-05T09:06:35.261Z,981.79
2016-11-05T09:07:43.958Z,981.73
2016-11-05T09:08:52.655Z,981.77
2016-11-05T09:10:01.340Z,981.85
2016-11-05T09:11:10.032Z,981.83
2016-11-05T09:12:18.731Z,981.86
2016-11-05T09:13:27.420Z,981.79
2016-11-05T09:14:36.110Z,981.88
2016-11-05T09:15:44.800Z,981.84
2016-11-05T09:16:53.488Z,981.82
2016-11-05T09:18:02.179Z,981.84
2016-11-05T09:19:10.869Z,981.85
2016-11-05T09:20:19.558Z,981.89
2016-11-05T09:21:28.252Z,981.83
2016-11-05T09:22:36.978Z,981.73
2016-11-05T09:23:45.702Z,981.81
2016-11-05T09:24:54.401Z,981.87
2016-11-05T09:26:03.094Z,981.96
2016-11-05T09:27:11.788Z,981.91
2016-11-05T09:28:20.479Z,981.91
2016-11-05T09:29:29.201Z,981.88
2016-11-05T09:30:37.922Z,981.91
2016-11-05T09:31:46.612Z,981.91
2016-11-05T09:32:55.311Z,981.98
2016-11-05T09:34:04.002Z,982
2016-11-05T09:35:12.691Z,982.02
2016-11-05T09:36:21.378Z,982.02
2016-11-05T09:37:30.076Z,981.94
2016-11-05T09:38:38.768Z,981.94
2016-11-05T09:39:47.453Z,981.93
2016-11-05T09:40:56.139Z,981.93
2016-11-05T09:42:04.826Z,981.86
2016-11-05T09:43:13.517Z,982.04
2016-11-05T09:44:22.202Z,981.92
2016-11-05T09:45:30.928Z,981.98
2016-11-05T09:46:39.618Z,981.93
2016-11-05T09:47:48.319Z,981.96
2016-11-05T09:48:57.045Z,981.98
2016-11-05T09:50:05.730Z,982
2016-11-05T09:51:14.416Z,981.9
2016-11-05T09:52:23.110Z,981.97
2016-11-05T09:53:31.999Z,981.87
2016-11-05T09:54:40.694Z,982.05
2016-11-05T09:55:49.415Z,982.03
2016-11-05T09:56:58.104Z,982.01
2016-11-05T09:58:06.794Z,982.05
2016-11-05T09:59:15.487Z,982.09
2016-11-05T10:00:24.222Z,982.09
2016-11-05T10:01:32.912Z,982.07
2016-11-05T10:02:41.611Z,982.08
2016-11-05T10:03:50.297Z,982.11
2016-11-05T10:04:58.983Z,982.1
2016-11-05T10:06:07.676Z,982.09
2016-11-05T10:07:16.690Z,982.05
2016-11-05T10:08:25.418Z,982.11
2016-11-05T10:09:34.145Z,982.16
2016-11-05T10:10:42.833Z,982.12
2016-11-05T10:11:51.522Z,982.06
2016-11-05T10:13:00.211Z,982.05
2016-11-05T10:14:08.959Z,982.07
2016-11-05T10:15:17.651Z,982.03
2016-11-05T10:16:26.350Z,982.14
2016-11-05T10:17:35.045Z,982.04
2016-11-05T10:18:43.732Z,982.12
2016-11-05T10:19:52.440Z,982.1
2016-11-05T10:21:01.129Z,982.03
2016-11-05T10:22:09.818Z,982.02
2016-11-05T10:23:18.504Z,982.03
2016-11-05T10:24:27.203Z,982.08
2016-11-05T10:25:35.894Z,982.04
2016-11-05T10:26:44.587Z,982.03
2016-11-05T10:27:53.276Z,982.05
2016-11-05T10:29:01.967Z,981.95
2016-11-05T10:30:10.668Z,982.02
2016-11-05T10:31:19.363Z,982.03
2016-11-05T10:32:28.049Z,982.07
2016-11-05T10:33:36.878Z,982.1
2016-11-05T10:34:45.570Z,982.07
2016-11-05T10:35:54.259Z,982.05
2016-11-05T10:37:02.953Z,982.15
2016-11-05T10:38:11.656Z,982.11
2016-11-05T10:39:20.344Z,982.12
2016-11-05T10:40:29.036Z,982.11
2016-11-05T10:41:37.730Z,982.14
2016-11-05T10:42:46.416Z,982.21
2016-11-05T10:43:55.105Z,982.12
2016-11-05T10:45:03.846Z,982.15
2016-11-05T10:46:12.535Z,982.27
2016-11-05T10:47:21.234Z,982.22
2016-11-05T10:48:29.930Z,982.24
2016-11-05T10:49:38.617Z,982.26
2016-11-05T10:50:47.311Z,982.2
2016-11-05T10:51:56.004Z,982.29
2016-11-05T10:53:04.726Z,982.28
2016-11-05T10:54:13.416Z,982.28
2016-11-05T10:55:22.108Z,982.28
2016-11-05T10:56:30.801Z,982.3
2016-11-05T10:57:39.491Z,982.32
2016-11-05T10:58:48.180Z,982.3
2016-11-05T10:59:56.871Z,982.3
2016-11-05T11:01:05.563Z,982.28
2016-11-05T11:02:14.253Z,982.37
2016-11-05T11:03:22.941Z,982.37
2016-11-05T11:04:31.631Z,982.24
2016-11-05T11:05:40.319Z,982.24
2016-11-05T11:06:49.014Z,982.26
2016-11-05T11:07:57.732Z,982.19
2016-11-05T11:09:06.422Z,982.24
2016-11-05T11:10:15.120Z,982.2
2016-11-05T11:11:23.816Z,982.24
2016-11-05T11:12:32.832Z,982.18
2016-11-05T11:13:41.519Z,982.17
2016-11-05T11:14:50.209Z,982.23
2016-11-05T11:15:58.895Z,982.29
2016-11-05T11:17:07.593Z,982.2
2016-11-05T11:18:16.285Z,982.18
2016-11-05T11:19:24.975Z,982.13
2016-11-05T11:20:33.701Z,982.18
2016-11-05T11:21:42.431Z,982.2
2016-11-05T11:22:51.120Z,982.2
2016-11-05T11:23:59.814Z,982.22
2016-11-05T11:25:08.504Z,982.26
2016-11-05T11:26:17.197Z,982.22
2016-11-05T11:27:25.887Z,982.16
2016-11-05T11:28:34.575Z,982.23
2016-11-05T11:29:43.268Z,982.19
2016-11-05T11:30:51.959Z,982.11
2016-11-05T11:32:00.687Z,982.1
2016-11-05T11:33:09.383Z,982.15
2016-11-05T11:34:18.071Z,982.13
2016-11-05T11:35:26.758Z,982.07
2016-11-05T11:36:35.451Z,982.18
2016-11-05T11:37:44.146Z,982.14
2016-11-05T11:38:53.148Z,982.15
2016-11-05T11:40:01.841Z,982.11
2016-11-05T11:41:10.542Z,982.17
2016-11-05T11:42:19.237Z,982.12
2016-11-05T11:43:27.929Z,982.13
2016-11-05T11:44:36.650Z,982.12
2016-11-05T11:45:45.338Z,982.11
2016-11-05T11:46:54.066Z,982.12
2016-11-05T11:48:02.800Z,982.09
2016-11-05T11:49:11.489Z,982.1
2016-11-05T11:50:20.177Z,982.15
2016-11-05T11:51:28.884Z,982.1
2016-11-05T11:52:37.575Z,982.1
2016-11-05T11:53:46.265Z,982.11
2016-11-05T11:54:54.957Z,982.07
2016-11-05T11:56:03.646Z,982.09
2016-11-05T11:57:12.339Z,982.08
2016-11-05T11:58:21.030Z,982.05
2016-11-05T11:59:29.721Z,982.05
2016-11-05T12:00:38.408Z,982.05
2016-11-05T12:01:47.094Z,982.09
2016-11-05T12:02:55.789Z,982.09
2016-11-05T12:04:04.483Z,982.06
2016-11-05T12:05:13.174Z,982.09
2016-11-05T12:06:21.867Z,982.07
2016-11-05T12:07:30.557Z,982.11
2016-11-05T12:08:39.241Z,982.06
2016-11-05T12:09:47.963Z,982.12
2016-11-05T12:10:56.663Z,982.09
2016-11-05T12:12:05.707Z,982.21
2016-11-05T12:13:14.396Z,982.14
2016-11-05T12:14:23.085Z,982.17
2016-11-05T12:15:31.772Z,982.14
2016-11-05T12:16:40.459Z,982.18
2016-11-05T12:17:49.152Z,982.18
2016-11-05T12:18:57.838Z,982.16
2016-11-05T12:20:06.527Z,982.17
2016-11-05T12:21:15.221Z,982.14
2016-11-05T12:22:23.908Z,982.11
2016-11-05T12:23:32.601Z,982.16
2016-11-05T12:24:41.291Z,982.19
2016-11-05T12:25:49.979Z,982.12
2016-11-05T12:26:58.668Z,982.12
2016-11-05T12:28:07.359Z,982.13
2016-11-05T12:29:16.048Z,982.1
2016-11-05T12:30:24.738Z,982.12
2016-11-05T12:31:33.425Z,982.07
2016-11-05T12:32:42.116Z,982.14
2016-11-05T12:33:50.843Z,982.1
2016-11-05T12:34:59.542Z,982.14
2016-11-05T12:36:08.233Z,982.14
2016-11-05T12:37:16.952Z,982.21
2016-11-05T12:38:25.644Z,982.15
2016-11-05T12:39:34.337Z,982.14
2016-11-05T12:40:43.029Z,982.16
2016-11-05T12:41:51.720Z,982.16
2016-11-05T12:43:00.414Z,982.13
2016-11-05T12:44:09.132Z,982.19
2016-11-05T12:45:17.850Z,982.1
2016-11-05T12:46:26.545Z,982.08
2016-11-05T12:47:35.243Z,982.1
2016-11-05T12:48:43.930Z,982.12
2016-11-05T12:49:52.624Z,982.15
2016-11-05T12:51:01.350Z,982.12
2016-11-05T12:52:10.040Z,982.13
2016-11-05T12:53:18.731Z,982.06
2016-11-05T12:54:27.434Z,982.1
2016-11-05T12:55:36.135Z,982.14
2016-11-05T12:56:44.868Z,982.12
2016-11-05T12:57:53.554Z,982.07
2016-11-05T12:59:02.243Z,982.13
2016-11-05T13:00:11.270Z,982.15
2016-11-05T13:01:19.959Z,982.09
2016-11-05T13:02:28.649Z,982.11
2016-11-05T13:03:37.369Z,982.16
2016-11-05T13:04:46.060Z,982.1
2016-11-05T13:05:54.751Z,982.08
2016-11-05T13:07:03.464Z,982.13
2016-11-05T13:08:12.169Z,982.15
2016-11-05T13:09:20.870Z,982.1
2016-11-05T13:10:29.562Z,982.12
2016-11-05T13:11:38.285Z,982.06
2016-11-05T13:12:46.976Z,982.09
2016-11-05T13:13:55.663Z,982.14
2016-11-05T13:15:04.351Z,982.06
2016-11-05T13:16:13.042Z,982.15
2016-11-05T13:17:21.741Z,982.16
2016-11-05T13:18:30.435Z,982.11
2016-11-05T13:19:39.150Z,982.16
2016-11-05T13:20:47.998Z,982.21
2016-11-05T13:21:57.077Z,982.2
2016-11-05T13:23:05.878Z,982.15
2016-11-05T13:24:15.022Z,982.19
2016-11-05T13:25:23.821Z,982.14
2016-11-05T13:26:32.782Z,982.09
2016-11-05T13:27:41.555Z,982.15
2016-11-05T13:28:50.243Z,982.16
2016-11-05T13:29:58.959Z,982.13
2016-11-05T13:31:08.242Z,982.09
2016-11-05T13:32:17.252Z,982.09
2016-11-05T13:33:26.261Z,982.11
2016-11-05T13:34:34.955Z,982.1
2016-11-05T13:35:43.640Z,982.13
2016-11-05T13:36:52.336Z,982.09
2016-11-05T13:38:01.023Z,982.06
2016-11-05T13:39:09.715Z,982.14
2016-11-05T13:40:18.406Z,982.04
2016-11-05T13:41:27.128Z,982.12
2016-11-05T13:42:35.815Z,982.12
2016-11-05T13:43:44.506Z,982.14
2016-11-05T13:44:53.225Z,982.1
2016-11-05T13:46:01.920Z,982.1
2016-11-05T13:47:10.608Z,982.1
2016-11-05T13:48:19.303Z,982.11
2016-11-05T13:49:27.992Z,982.12
2016-11-05T13:50:36.686Z,982.1
2016-11-05T13:51:45.372Z,982.09
2016-11-05T13:52:54.066Z,982.13
2016-11-05T13:54:02.764Z,982.17
2016-11-05T13:55:11.457Z,982.09
2016-11-05T13:56:20.165Z,982.13
2016-11-05T13:57:28.853Z,982.15
2016-11-05T13:58:37.579Z,982.15
2016-11-05T13:59:46.265Z,982.1
2016-11-05T14:00:54.980Z,982.15
2016-11-05T14:02:03.680Z,982.14
2016-11-05T14:03:12.400Z,982.13
2016-11-05T14:04:21.094Z,982.07
2016-11-05T14:05:29.785Z,982.15
2016-11-05T14:06:38.472Z,982.1
2016-11-05T14:07:47.156Z,982.06
2016-11-05T14:08:55.845Z,982.13
2016-11-05T14:10:04.535Z,982.14
2016-11-05T14:11:13.231Z,982.01
2016-11-05T14:12:21.926Z,982.16
2016-11-05T14:13:30.614Z,982.1
2016-11-05T14:14:39.308Z,982.16
2016-11-05T14:15:47.997Z,982.15
2016-11-05T14:16:56.690Z,982.1
2016-11-05T14:18:05.382Z,982.13
2016-11-05T14:19:14.075Z,982.18
2016-11-05T14:20:22.765Z,982.14